Pagrindinis puslapis
METAR-TAF:

METAR-TAF

Oro uostai :

Noorvik, Aliaska, Jungtinės Amerikos Valstijos

platuma: 66-49-03N, ilguma: 161-01-20W, Aukštis: 17 m

Dabartinis oras

Ataskaita buvo paskelbta 8 minutes, ne 03:56 UTC
Vėjas 5 kt iš Vakarų/Šiaurės Vakarų
Temperatūra 13°C
Drėgmė 62%
Slėgis 1003 hPa
Matomumas: 16.1 km
Su prošvaistėmis ne aukštis 9000 ft

METAR: PFNO 160356Z AUTO 30005KT 10SM BKN090 13/06 A2963 RMK AO2 SLP035 T01330061

Laikas: 20:04 (04:04 UTC)


TAF: trūkstamas

Orai ataskaitas ir orų prognozės (METAR, TAF).

turimą stotys yra geltonos ir raudonos taškus žemėlapyje.

Perkelti pele per norėdami pamatyti stoties vardą.

Tada spustelėkite, norėdami matyti oro stebėjimo ir prognozės.

Norėdami pakeisti žemėlapį: spustelėkite ant žalios mygtukų su juodo kryžiaus žemyn,; žalią mygtuką su brūkšneliu, jei norite nutolinti; arba žalių rodyklių gretimoms žemėlapius.


METAR-TAF: